createdAt,value
2023-05-20T00:00:29.174Z,11.55
2023-05-20T00:05:25.799Z,11.66
2023-05-20T00:10:22.187Z,11.85
2023-05-20T00:15:18.583Z,11.71
2023-05-20T00:20:15.196Z,11.57
2023-05-20T00:25:11.657Z,11.48
2023-05-20T00:30:08.566Z,11.45
2023-05-20T00:35:05.702Z,11.44
2023-05-20T00:40:02.150Z,11.42
2023-05-20T00:44:58.594Z,11.30
2023-05-20T00:49:55.160Z,11.23
2023-05-20T00:54:52.525Z,11.27
2023-05-20T00:59:49.007Z,11.20
2023-05-20T01:04:47.260Z,11.16
2023-05-20T01:09:44.369Z,11.23
2023-05-20T01:14:48.350Z,11.19
2023-05-20T01:19:45.747Z,11.17
2023-05-20T01:24:44.057Z,11.22
2023-05-20T01:29:42.074Z,11.15
2023-05-20T01:34:41.543Z,11.12
2023-05-20T01:39:41.663Z,11.04
2023-05-20T01:44:38.334Z,10.94
2023-05-20T01:49:34.780Z,10.83
2023-05-20T01:54:31.386Z,10.70
2023-05-20T01:59:27.787Z,10.52
2023-05-20T02:04:24.152Z,10.47
2023-05-20T02:09:21.585Z,10.41
2023-05-20T02:14:18.126Z,10.24
2023-05-20T02:19:19.748Z,10.07
2023-05-20T02:24:16.697Z,9.97
2023-05-20T02:29:13.128Z,9.90
2023-05-20T02:34:09.599Z,9.83
2023-05-20T02:39:06.876Z,9.84
2023-05-20T02:44:03.297Z,9.85
2023-05-20T02:48:59.712Z,9.68
2023-05-20T02:53:56.117Z,9.59
2023-05-20T02:58:52.612Z,9.56
2023-05-20T03:03:49.094Z,9.52
2023-05-20T03:08:45.517Z,9.48
2023-05-20T03:13:42.185Z,9.49
2023-05-20T03:18:39.143Z,9.46
2023-05-20T03:23:35.562Z,9.45
2023-05-20T03:28:31.938Z,9.32
2023-05-20T03:33:29.751Z,9.27
2023-05-20T03:38:26.984Z,9.23
2023-05-20T03:43:23.477Z,9.30
2023-05-20T03:48:20.578Z,9.47
2023-05-20T03:53:17.471Z,9.43
2023-05-20T03:58:15.416Z,9.46
2023-05-20T04:03:12.480Z,9.39
2023-05-20T04:08:09.911Z,9.38
2023-05-20T04:13:06.458Z,9.35
2023-05-20T04:18:03.050Z,9.38
2023-05-20T04:22:59.555Z,9.47
2023-05-20T04:27:57.594Z,9.47
2023-05-20T04:32:54.603Z,9.56
2023-05-20T04:37:53.122Z,9.58
2023-05-20T04:42:49.559Z,9.57
2023-05-20T04:47:46.148Z,9.58
2023-05-20T04:52:43.667Z,9.61
2023-05-20T04:57:43.549Z,9.63
2023-05-20T05:02:40.351Z,9.74
2023-05-20T05:07:36.805Z,9.83
2023-05-20T05:12:33.214Z,9.94
2023-05-20T05:17:29.715Z,10.22
2023-05-20T05:22:26.130Z,10.40
2023-05-20T05:27:23.023Z,10.54
2023-05-20T05:32:19.570Z,10.46
2023-05-20T05:37:16.021Z,10.54
2023-05-20T05:42:12.498Z,10.62
2023-05-20T05:47:09.114Z,10.85
2023-05-20T05:52:05.707Z,11.01
2023-05-20T05:57:02.099Z,11.21
2023-05-20T06:01:58.587Z,11.27
2023-05-20T06:06:55.032Z,11.25
2023-05-20T06:11:51.461Z,11.53
2023-05-20T06:16:47.906Z,11.82
2023-05-20T06:21:44.334Z,11.63
2023-05-20T06:26:40.824Z,11.88
2023-05-20T06:31:37.369Z,11.93
2023-05-20T06:36:33.974Z,12.15
2023-05-20T06:41:30.641Z,12.50
2023-05-20T06:46:27.059Z,13.18
2023-05-20T06:51:23.486Z,13.49
2023-05-20T06:56:19.974Z,13.39
2023-05-20T07:01:18.151Z,13.93
2023-05-20T07:06:14.907Z,14.20
2023-05-20T07:11:11.282Z,14.44
2023-05-20T07:16:07.799Z,14.85
2023-05-20T07:21:04.178Z,14.79
2023-05-20T07:26:00.591Z,14.46
2023-05-20T07:30:57.936Z,14.70
2023-05-20T07:35:54.564Z,15.14
2023-05-20T07:40:51.375Z,15.38
2023-05-20T07:45:47.804Z,15.53
2023-05-20T07:50:44.591Z,15.68
2023-05-20T07:55:41.092Z,16.04
2023-05-20T08:00:37.481Z,15.78
2023-05-20T08:05:36.940Z,15.69
2023-05-20T08:10:33.351Z,15.54
2023-05-20T08:15:29.851Z,15.68
2023-05-20T08:20:26.569Z,15.94
2023-05-20T08:25:23.676Z,16.28
2023-05-20T08:30:20.129Z,16.52
2023-05-20T08:35:16.608Z,16.68
2023-05-20T08:40:13.503Z,17.22
2023-05-20T08:45:15.670Z,16.88
2023-05-20T08:50:13.447Z,17.47
2023-05-20T08:55:14.446Z,17.07
2023-05-20T09:00:13.436Z,16.93
2023-05-20T09:05:11.662Z,17.17
2023-05-20T09:10:09.533Z,17.72
2023-05-20T09:15:07.483Z,17.64
2023-05-20T09:20:08.690Z,17.46
2023-05-20T09:25:06.591Z,17.34
2023-05-20T09:30:07.010Z,16.93
2023-05-20T09:35:04.332Z,16.90
2023-05-20T09:40:07.191Z,17.30
2023-05-20T09:45:04.694Z,17.89
2023-05-20T09:50:03.342Z,18.63
2023-05-20T09:55:03.026Z,18.53
2023-05-20T09:59:59.483Z,18.14
2023-05-20T10:04:59.168Z,17.78
2023-05-20T10:10:33.740Z,18.42
2023-05-20T10:15:51.988Z,19.03
2023-05-20T10:20:50.106Z,18.10
2023-05-20T10:25:54.841Z,17.68
2023-05-20T10:30:51.340Z,17.73
2023-05-20T10:35:50.515Z,18.12
2023-05-20T10:40:47.946Z,17.94
2023-05-20T10:45:58.185Z,17.77
2023-05-20T10:50:59.763Z,18.00
2023-05-20T10:55:56.677Z,18.34
2023-05-20T11:00:55.150Z,17.98
2023-05-20T11:05:51.778Z,17.36
2023-05-20T11:10:48.374Z,17.57
2023-05-20T11:15:44.800Z,17.68
2023-05-20T11:20:41.602Z,17.52
2023-05-20T11:25:38.210Z,17.57
2023-05-20T11:30:34.833Z,17.64
2023-05-20T11:35:32.953Z,17.70
2023-05-20T11:40:38.820Z,18.19
2023-05-20T11:45:45.498Z,18.44
2023-05-20T11:50:43.849Z,17.97
2023-05-20T11:55:57.824Z,18.08
2023-05-20T12:01:01.844Z,18.32
2023-05-20T12:06:05.941Z,19.24
2023-05-20T12:11:02.357Z,19.68
2023-05-20T12:15:58.817Z,19.73
2023-05-20T12:20:55.195Z,19.86
2023-05-20T12:25:51.655Z,19.32
2023-05-20T12:30:48.036Z,18.60
2023-05-20T12:35:44.710Z,18.72
2023-05-20T12:40:41.095Z,18.59
2023-05-20T12:45:37.511Z,18.61
2023-05-20T12:50:34.242Z,18.67
2023-05-20T12:55:30.885Z,19.02
2023-05-20T13:00:27.335Z,19.38
2023-05-20T13:05:23.741Z,19.13
2023-05-20T13:10:20.323Z,18.20
2023-05-20T13:15:16.885Z,18.51
2023-05-20T13:20:13.482Z,18.30
2023-05-20T13:25:09.878Z,18.80
2023-05-20T13:30:07.112Z,19.31
2023-05-20T13:35:03.721Z,19.48
2023-05-20T13:40:00.154Z,19.55
2023-05-20T13:44:56.588Z,19.62
2023-05-20T13:49:53.032Z,19.24
2023-05-20T13:54:49.386Z,18.22
2023-05-20T13:59:45.791Z,18.42
2023-05-20T14:04:44.882Z,18.76
2023-05-20T14:09:41.952Z,18.41
2023-05-20T14:14:38.372Z,18.35
2023-05-20T14:19:34.914Z,17.99
2023-05-20T14:24:31.432Z,18.16
2023-05-20T14:29:27.799Z,18.44
2023-05-20T14:34:24.182Z,18.57
2023-05-20T14:39:20.979Z,18.58
2023-05-20T14:44:17.345Z,18.25
2023-05-20T14:49:13.810Z,17.85
2023-05-20T14:54:10.400Z,17.72
2023-05-20T14:59:07.167Z,17.92
2023-05-20T15:04:03.735Z,18.56
2023-05-20T15:09:00.190Z,18.14
2023-05-20T15:13:56.700Z,17.87
2023-05-20T15:18:53.141Z,17.52
2023-05-20T15:23:49.624Z,17.44
2023-05-20T15:28:46.104Z,17.21
2023-05-20T15:33:42.600Z,17.19
2023-05-20T15:38:39.164Z,17.20
2023-05-20T15:43:36.123Z,16.84
2023-05-20T15:48:34.708Z,16.59
2023-05-20T15:53:32.255Z,16.44
2023-05-20T15:58:28.641Z,16.48
2023-05-20T16:03:25.119Z,16.44
2023-05-20T16:08:23.773Z,16.42
2023-05-20T16:13:20.143Z,16.39
2023-05-20T16:18:16.675Z,16.40
2023-05-20T16:23:13.038Z,16.44
2023-05-20T16:28:09.410Z,16.16
2023-05-20T16:33:05.926Z,16.20
2023-05-20T16:38:02.348Z,16.39
2023-05-20T16:42:59.048Z,16.86
2023-05-20T16:47:56.373Z,17.84
2023-05-20T16:52:52.925Z,17.56
2023-05-20T16:57:50.503Z,17.25
2023-05-20T17:02:47.002Z,16.95
2023-05-20T17:07:43.376Z,16.69
2023-05-20T17:12:39.734Z,16.42
2023-05-20T17:17:36.129Z,15.95
2023-05-20T17:22:32.577Z,15.87
2023-05-20T17:27:29.604Z,15.88
2023-05-20T17:32:26.368Z,15.68
2023-05-20T17:37:22.768Z,15.70
2023-05-20T17:42:19.129Z,15.49
2023-05-20T17:47:15.814Z,15.49
2023-05-20T17:52:12.203Z,15.48
2023-05-20T17:57:08.707Z,15.53
2023-05-20T18:02:06.235Z,15.49
2023-05-20T18:07:04.120Z,15.43
2023-05-20T18:12:00.692Z,15.42
2023-05-20T18:16:57.465Z,15.39
2023-05-20T18:21:53.918Z,15.36
2023-05-20T18:26:50.597Z,15.30
2023-05-20T18:31:46.961Z,15.20
2023-05-20T18:36:43.409Z,15.20
2023-05-20T18:46:42.840Z,15.11
2023-05-20T18:51:40.264Z,15.08
2023-05-20T18:56:36.926Z,15.03
2023-05-20T19:01:33.898Z,15.05
2023-05-20T19:06:31.787Z,15.02
2023-05-20T19:11:28.486Z,14.91
2023-05-20T19:16:26.091Z,14.94
2023-05-20T19:21:22.576Z,14.96
2023-05-20T19:26:18.912Z,15.03
2023-05-20T19:31:20.819Z,14.99
2023-05-20T19:36:17.537Z,15.03
2023-05-20T19:41:14.006Z,14.99
2023-05-20T19:46:10.481Z,14.98
2023-05-20T19:51:06.927Z,14.95
2023-05-20T19:56:03.674Z,14.84
2023-05-20T20:01:00.054Z,14.76
2023-05-20T20:05:57.001Z,14.66
2023-05-20T20:10:53.580Z,14.53
2023-05-20T20:15:49.916Z,14.41
2023-05-20T20:20:46.248Z,14.28
2023-05-20T20:25:43.824Z,14.28
2023-05-20T20:30:40.591Z,14.29
2023-05-20T20:35:37.524Z,14.22
2023-05-20T20:40:39.136Z,14.15
2023-05-20T20:45:38.206Z,14.10
2023-05-20T20:50:35.670Z,14.01
2023-05-20T20:55:32.077Z,14.02
2023-05-20T21:00:28.429Z,13.96
2023-05-20T21:05:26.376Z,13.90
2023-05-20T21:10:22.775Z,13.84
2023-05-20T21:15:19.124Z,13.77
2023-05-20T21:20:16.246Z,13.79
2023-05-20T21:25:13.526Z,13.81
2023-05-20T21:30:11.351Z,13.86
2023-05-20T21:35:08.477Z,13.82
2023-05-20T21:40:05.533Z,13.89
2023-05-20T21:45:01.946Z,13.93
2023-05-20T21:49:58.468Z,13.92
2023-05-20T21:54:55.046Z,13.82
2023-05-20T21:59:51.548Z,13.81
2023-05-20T22:04:49.166Z,13.77
2023-05-20T22:09:45.731Z,13.68
2023-05-20T22:14:42.108Z,13.56
2023-05-20T22:19:38.716Z,13.48
2023-05-20T22:24:35.143Z,13.34
2023-05-20T22:29:32.445Z,13.28
2023-05-20T22:34:28.951Z,13.33
2023-05-20T22:39:25.620Z,13.28
2023-05-20T22:44:21.983Z,13.22
2023-05-20T22:49:18.903Z,13.16
2023-05-20T22:54:16.392Z,13.14
2023-05-20T22:59:13.003Z,13.06
2023-05-20T23:04:09.393Z,13.04
2023-05-20T23:09:07.461Z,13.07
2023-05-20T23:14:04.143Z,12.95
2023-05-20T23:19:00.601Z,12.87
2023-05-20T23:23:57.082Z,12.85
2023-05-20T23:28:53.492Z,12.77
2023-05-20T23:33:49.929Z,12.73
2023-05-20T23:38:46.367Z,12.66
2023-05-20T23:43:42.977Z,12.70
2023-05-20T23:48:39.793Z,12.63
2023-05-20T23:53:36.303Z,12.54
2023-05-20T23:58:32.651Z,12.55
